sensor_id;sensor_type;location;lat;lon;timestamp;P1;durP1;ratioP1;P2;durP2;ratioP2
80698;SDS011;70062;51.658;5.658;2024-02-14T00:00:34;4.50;;;2.40;;
80698;SDS011;70062;51.658;5.658;2024-02-14T00:04:14;4.00;;;2.30;;
80698;SDS011;70062;51.658;5.658;2024-02-14T00:07:50;3.00;;;2.20;;
80698;SDS011;70062;51.658;5.658;2024-02-14T00:11:20;2.70;;;2.10;;
80698;SDS011;70062;51.658;5.658;2024-02-14T00:15:58;3.10;;;2.40;;
80698;SDS011;70062;51.658;5.658;2024-02-14T00:20:30;3.60;;;2.20;;
80698;SDS011;70062;51.658;5.658;2024-02-14T00:24:58;4.40;;;2.30;;
80698;SDS011;70062;51.658;5.658;2024-02-14T00:29:06;2.80;;;2.20;;
80698;SDS011;70062;51.658;5.658;2024-02-14T00:33:13;2.60;;;2.20;;
80698;SDS011;70062;51.658;5.658;2024-02-14T00:37:20;5.80;;;2.30;;
80698;SDS011;70062;51.658;5.658;2024-02-14T00:41:46;2.90;;;2.30;;
80698;SDS011;70062;51.658;5.658;2024-02-14T00:46:18;4.10;;;2.50;;
80698;SDS011;70062;51.658;5.658;2024-02-14T00:49:52;3.50;;;2.10;;
80698;SDS011;70062;51.658;5.658;2024-02-14T00:53:25;3.30;;;2.20;;
80698;SDS011;70062;51.658;5.658;2024-02-14T00:56:58;4.10;;;2.20;;
80698;SDS011;70062;51.658;5.658;2024-02-14T01:00:26;3.00;;;2.20;;
80698;SDS011;70062;51.658;5.658;2024-02-14T01:03:54;3.40;;;2.30;;
80698;SDS011;70062;51.658;5.658;2024-02-14T01:07:25;3.80;;;2.00;;
80698;SDS011;70062;51.658;5.658;2024-02-14T01:10:53;3.40;;;2.10;;
80698;SDS011;70062;51.658;5.658;2024-02-14T01:14:20;3.80;;;2.20;;
80698;SDS011;70062;51.658;5.658;2024-02-14T01:17:49;3.10;;;2.10;;
80698;SDS011;70062;51.658;5.658;2024-02-14T01:21:18;2.80;;;2.00;;
80698;SDS011;70062;51.658;5.658;2024-02-14T01:24:45;2.60;;;2.10;;
80698;SDS011;70062;51.658;5.658;2024-02-14T01:28:13;2.70;;;2.20;;
80698;SDS011;70062;51.658;5.658;2024-02-14T01:31:40;3.90;;;2.20;;
80698;SDS011;70062;51.658;5.658;2024-02-14T01:35:10;3.20;;;2.20;;
80698;SDS011;70062;51.658;5.658;2024-02-14T01:38:38;4.40;;;2.30;;
80698;SDS011;70062;51.658;5.658;2024-02-14T01:42:05;3.60;;;2.20;;
80698;SDS011;70062;51.658;5.658;2024-02-14T01:45:38;2.70;;;2.20;;
80698;SDS011;70062;51.658;5.658;2024-02-14T01:49:09;4.30;;;2.30;;
80698;SDS011;70062;51.658;5.658;2024-02-14T01:52:39;3.30;;;2.20;;
80698;SDS011;70062;51.658;5.658;2024-02-14T01:56:08;3.50;;;2.10;;
80698;SDS011;70062;51.658;5.658;2024-02-14T01:59:36;3.50;;;2.10;;
80698;SDS011;70062;51.658;5.658;2024-02-14T02:03:09;3.70;;;2.10;;
80698;SDS011;70062;51.658;5.658;2024-02-14T02:06:37;3.30;;;2.10;;
80698;SDS011;70062;51.658;5.658;2024-02-14T02:10:04;3.80;;;2.00;;
80698;SDS011;70062;51.658;5.658;2024-02-14T02:13:32;2.60;;;2.00;;
80698;SDS011;70062;51.658;5.658;2024-02-14T02:17:01;3.40;;;2.10;;
80698;SDS011;70062;51.658;5.658;2024-02-14T02:20:29;4.70;;;2.10;;
80698;SDS011;70062;51.658;5.658;2024-02-14T02:23:59;3.20;;;2.00;;
80698;SDS011;70062;51.658;5.658;2024-02-14T02:27:33;2.30;;;2.00;;
80698;SDS011;70062;51.658;5.658;2024-02-14T02:31:03;2.90;;;2.20;;
80698;SDS011;70062;51.658;5.658;2024-02-14T02:34:31;3.30;;;2.00;;
80698;SDS011;70062;51.658;5.658;2024-02-14T02:37:58;2.30;;;1.90;;
80698;SDS011;70062;51.658;5.658;2024-02-14T02:41:27;3.20;;;2.10;;
80698;SDS011;70062;51.658;5.658;2024-02-14T02:44:55;4.10;;;2.10;;
80698;SDS011;70062;51.658;5.658;2024-02-14T02:48:24;3.70;;;2.00;;
80698;SDS011;70062;51.658;5.658;2024-02-14T02:51:56;3.30;;;2.00;;
80698;SDS011;70062;51.658;5.658;2024-02-14T02:55:24;3.10;;;2.10;;
80698;SDS011;70062;51.658;5.658;2024-02-14T02:58:50;3.20;;;2.10;;
80698;SDS011;70062;51.658;5.658;2024-02-14T03:02:18;2.90;;;2.20;;
80698;SDS011;70062;51.658;5.658;2024-02-14T03:05:50;2.60;;;1.90;;
80698;SDS011;70062;51.658;5.658;2024-02-14T03:09:18;2.70;;;2.00;;
80698;SDS011;70062;51.658;5.658;2024-02-14T03:12:47;3.50;;;1.90;;
80698;SDS011;70062;51.658;5.658;2024-02-14T03:16:14;2.60;;;1.90;;
80698;SDS011;70062;51.658;5.658;2024-02-14T03:20:38;2.90;;;1.80;;
80698;SDS011;70062;51.658;5.658;2024-02-14T03:24:13;3.60;;;2.20;;
80698;SDS011;70062;51.658;5.658;2024-02-14T03:27:44;2.70;;;2.00;;
80698;SDS011;70062;51.658;5.658;2024-02-14T03:31:10;2.80;;;2.00;;
80698;SDS011;70062;51.658;5.658;2024-02-14T03:34:39;2.90;;;1.80;;
80698;SDS011;70062;51.658;5.658;2024-02-14T03:38:30;2.60;;;2.00;;
80698;SDS011;70062;51.658;5.658;2024-02-14T03:42:12;2.60;;;1.90;;
80698;SDS011;70062;51.658;5.658;2024-02-14T03:45:42;2.70;;;1.90;;
80698;SDS011;70062;51.658;5.658;2024-02-14T03:49:11;3.40;;;2.20;;
80698;SDS011;70062;51.658;5.658;2024-02-14T03:52:51;4.20;;;2.20;;
80698;SDS011;70062;51.658;5.658;2024-02-14T03:56:18;3.40;;;2.10;;
80698;SDS011;70062;51.658;5.658;2024-02-14T04:00:53;3.00;;;2.10;;
80698;SDS011;70062;51.658;5.658;2024-02-14T04:04:58;2.10;;;1.90;;
80698;SDS011;70062;51.658;5.658;2024-02-14T04:11:37;3.40;;;1.90;;
80698;SDS011;70062;51.658;5.658;2024-02-14T04:15:05;2.50;;;1.90;;
80698;SDS011;70062;51.658;5.658;2024-02-14T04:18:33;2.60;;;1.90;;
80698;SDS011;70062;51.658;5.658;2024-02-14T04:22:05;2.70;;;1.90;;
80698;SDS011;70062;51.658;5.658;2024-02-14T04:25:35;3.20;;;1.80;;
80698;SDS011;70062;51.658;5.658;2024-02-14T04:29:03;2.60;;;2.00;;
80698;SDS011;70062;51.658;5.658;2024-02-14T04:32:30;2.40;;;1.90;;
80698;SDS011;70062;51.658;5.658;2024-02-14T04:35:59;2.60;;;2.10;;
80698;SDS011;70062;51.658;5.658;2024-02-14T04:39:26;3.30;;;2.00;;
80698;SDS011;70062;51.658;5.658;2024-02-14T04:42:53;2.40;;;2.00;;
80698;SDS011;70062;51.658;5.658;2024-02-14T04:46:22;3.50;;;2.00;;
80698;SDS011;70062;51.658;5.658;2024-02-14T04:49:49;3.00;;;1.90;;
80698;SDS011;70062;51.658;5.658;2024-02-14T04:53:23;3.40;;;1.80;;
80698;SDS011;70062;51.658;5.658;2024-02-14T04:56:55;2.20;;;1.90;;
80698;SDS011;70062;51.658;5.658;2024-02-14T05:00:23;2.80;;;1.90;;
80698;SDS011;70062;51.658;5.658;2024-02-14T05:03:52;2.50;;;2.00;;
80698;SDS011;70062;51.658;5.658;2024-02-14T05:08:08;2.90;;;2.00;;
80698;SDS011;70062;51.658;5.658;2024-02-14T05:12:34;3.00;;;2.20;;
80698;SDS011;70062;51.658;5.658;2024-02-14T05:17:04;3.80;;;2.20;;
80698;SDS011;70062;51.658;5.658;2024-02-14T05:21:31;3.50;;;2.10;;
80698;SDS011;70062;51.658;5.658;2024-02-14T05:25:43;2.60;;;2.10;;
80698;SDS011;70062;51.658;5.658;2024-02-14T05:30:10;2.20;;;2.00;;
80698;SDS011;70062;51.658;5.658;2024-02-14T05:34:27;2.20;;;1.90;;
80698;SDS011;70062;51.658;5.658;2024-02-14T05:38:51;2.60;;;2.00;;
80698;SDS011;70062;51.658;5.658;2024-02-14T05:43:27;3.30;;;2.00;;
80698;SDS011;70062;51.658;5.658;2024-02-14T05:47:57;3.30;;;1.80;;
80698;SDS011;70062;51.658;5.658;2024-02-14T05:52:41;2.70;;;2.10;;
80698;SDS011;70062;51.658;5.658;2024-02-14T05:57:08;2.70;;;1.90;;
80698;SDS011;70062;51.658;5.658;2024-02-14T06:01:46;2.70;;;1.80;;
80698;SDS011;70062;51.658;5.658;2024-02-14T06:06:25;2.60;;;1.90;;
80698;SDS011;70062;51.658;5.658;2024-02-14T06:11:01;4.30;;;2.10;;
80698;SDS011;70062;51.658;5.658;2024-02-14T06:14:47;2.40;;;1.80;;
80698;SDS011;70062;51.658;5.658;2024-02-14T06:18:14;2.60;;;1.80;;
80698;SDS011;70062;51.658;5.658;2024-02-14T06:21:55;2.90;;;2.00;;
80698;SDS011;70062;51.658;5.658;2024-02-14T06:25:38;2.10;;;1.80;;
80698;SDS011;70062;51.658;5.658;2024-02-14T06:39:26;3.30;;;1.80;;
80698;SDS011;70062;51.658;5.658;2024-02-14T06:48:34;3.50;;;2.00;;
80698;SDS011;70062;51.658;5.658;2024-02-14T06:53:10;3.10;;;2.00;;
80698;SDS011;70062;51.658;5.658;2024-02-14T06:57:45;2.50;;;1.90;;
80698;SDS011;70062;51.658;5.658;2024-02-14T07:02:14;2.10;;;1.80;;
80698;SDS011;70062;51.658;5.658;2024-02-14T07:09:07;2.70;;;1.90;;
80698;SDS011;70062;51.658;5.658;2024-02-14T07:12:42;2.40;;;1.80;;
80698;SDS011;70062;51.658;5.658;2024-02-14T07:48:10;2.20;;;1.90;;
80698;SDS011;70062;51.658;5.658;2024-02-14T08:44:32;3.10;;;1.70;;
80698;SDS011;70062;51.658;5.658;2024-02-14T09:07:45;2.80;;;1.80;;
80698;SDS011;70062;51.658;5.658;2024-02-14T09:34:34;2.80;;;1.70;;
80698;SDS011;70062;51.658;5.658;2024-02-14T09:37:03;3.10;;;1.70;;
80698;SDS011;70062;51.658;5.658;2024-02-14T09:39:42;2.10;;;1.60;;
80698;SDS011;70062;51.658;5.658;2024-02-14T09:42:28;2.10;;;1.60;;
80698;SDS011;70062;51.658;5.658;2024-02-14T09:45:28;2.80;;;1.40;;
80698;SDS011;70062;51.658;5.658;2024-02-14T09:48:16;2.70;;;1.80;;
80698;SDS011;70062;51.658;5.658;2024-02-14T09:51:12;3.90;;;1.70;;
80698;SDS011;70062;51.658;5.658;2024-02-14T09:54:18;2.80;;;1.50;;
80698;SDS011;70062;51.658;5.658;2024-02-14T10:09:26;3.30;;;1.60;;
80698;SDS011;70062;51.658;5.658;2024-02-14T10:27:49;2.60;;;1.70;;
80698;SDS011;70062;51.658;5.658;2024-02-14T10:32:34;3.10;;;1.60;;
80698;SDS011;70062;51.658;5.658;2024-02-14T11:05:01;1.70;;;1.50;;
80698;SDS011;70062;51.658;5.658;2024-02-14T11:14:23;3.30;;;1.90;;
80698;SDS011;70062;51.658;5.658;2024-02-14T11:22:35;2.20;;;1.50;;
80698;SDS011;70062;51.658;5.658;2024-02-14T11:26:05;1.60;;;1.50;;
80698;SDS011;70062;51.658;5.658;2024-02-14T11:29:33;5.20;;;1.60;;
80698;SDS011;70062;51.658;5.658;2024-02-14T11:32:45;2.50;;;1.50;;
80698;SDS011;70062;51.658;5.658;2024-02-14T11:36:07;1.70;;;1.40;;
80698;SDS011;70062;51.658;5.658;2024-02-14T11:39:28;2.00;;;1.50;;
80698;SDS011;70062;51.658;5.658;2024-02-14T11:42:57;4.00;;;1.70;;
80698;SDS011;70062;51.658;5.658;2024-02-14T11:46:26;5.60;;;2.90;;
80698;SDS011;70062;51.658;5.658;2024-02-14T11:49:55;5.50;;;3.50;;
80698;SDS011;70062;51.658;5.658;2024-02-14T11:53:21;6.50;;;4.50;;
80698;SDS011;70062;51.658;5.658;2024-02-14T11:56:51;9.00;;;5.20;;
80698;SDS011;70062;51.658;5.658;2024-02-14T11:59:55;6.80;;;4.40;;
80698;SDS011;70062;51.658;5.658;2024-02-14T12:03:24;7.80;;;4.30;;
80698;SDS011;70062;51.658;5.658;2024-02-14T12:06:14;6.60;;;4.10;;
80698;SDS011;70062;51.658;5.658;2024-02-14T12:09:20;5.90;;;4.00;;
80698;SDS011;70062;51.658;5.658;2024-02-14T12:11:48;6.20;;;3.70;;
80698;SDS011;70062;51.658;5.658;2024-02-14T12:15:16;5.60;;;3.40;;
80698;SDS011;70062;51.658;5.658;2024-02-14T12:19:22;5.10;;;3.10;;
80698;SDS011;70062;51.658;5.658;2024-02-14T12:22:50;5.10;;;3.50;;
80698;SDS011;70062;51.658;5.658;2024-02-14T12:26:32;4.70;;;2.80;;
80698;SDS011;70062;51.658;5.658;2024-02-14T12:30:03;5.70;;;2.80;;
80698;SDS011;70062;51.658;5.658;2024-02-14T12:33:32;4.10;;;2.80;;
80698;SDS011;70062;51.658;5.658;2024-02-14T12:36:59;3.10;;;2.40;;
80698;SDS011;70062;51.658;5.658;2024-02-14T12:40:28;6.10;;;2.70;;
80698;SDS011;70062;51.658;5.658;2024-02-14T12:43:54;6.10;;;2.50;;
80698;SDS011;70062;51.658;5.658;2024-02-14T12:47:20;3.70;;;2.10;;
80698;SDS011;70062;51.658;5.658;2024-02-14T12:50:47;5.00;;;2.40;;
80698;SDS011;70062;51.658;5.658;2024-02-14T12:54:13;4.40;;;2.10;;
80698;SDS011;70062;51.658;5.658;2024-02-14T12:57:40;5.80;;;2.20;;
80698;SDS011;70062;51.658;5.658;2024-02-14T13:01:05;4.70;;;2.20;;
80698;SDS011;70062;51.658;5.658;2024-02-14T13:04:31;2.70;;;2.00;;
80698;SDS011;70062;51.658;5.658;2024-02-14T13:07:57;4.10;;;2.00;;
80698;SDS011;70062;51.658;5.658;2024-02-14T13:11:23;3.80;;;2.30;;
80698;SDS011;70062;51.658;5.658;2024-02-14T13:14:49;4.70;;;1.80;;
80698;SDS011;70062;51.658;5.658;2024-02-14T13:18:15;3.00;;;2.20;;
80698;SDS011;70062;51.658;5.658;2024-02-14T13:21:41;3.80;;;2.20;;
80698;SDS011;70062;51.658;5.658;2024-02-14T13:24:49;2.80;;;1.90;;
80698;SDS011;70062;51.658;5.658;2024-02-14T13:28:03;3.10;;;2.00;;
80698;SDS011;70062;51.658;5.658;2024-02-14T13:31:28;2.60;;;1.60;;
80698;SDS011;70062;51.658;5.658;2024-02-14T13:34:37;4.00;;;1.80;;
80698;SDS011;70062;51.658;5.658;2024-02-14T13:37:22;3.70;;;2.00;;
80698;SDS011;70062;51.658;5.658;2024-02-14T13:40:15;2.10;;;1.60;;
80698;SDS011;70062;51.658;5.658;2024-02-14T13:43:21;5.00;;;1.90;;
80698;SDS011;70062;51.658;5.658;2024-02-14T13:46:47;4.00;;;1.90;;
80698;SDS011;70062;51.658;5.658;2024-02-14T13:50:13;3.40;;;1.80;;
80698;SDS011;70062;51.658;5.658;2024-02-14T13:53:38;4.50;;;1.80;;
80698;SDS011;70062;51.658;5.658;2024-02-14T13:57:05;4.10;;;2.00;;
80698;SDS011;70062;51.658;5.658;2024-02-14T14:00:31;2.30;;;1.60;;
80698;SDS011;70062;51.658;5.658;2024-02-14T14:03:57;4.20;;;1.80;;
80698;SDS011;70062;51.658;5.658;2024-02-14T14:07:22;2.40;;;1.60;;
80698;SDS011;70062;51.658;5.658;2024-02-14T14:10:48;2.70;;;1.90;;
80698;SDS011;70062;51.658;5.658;2024-02-14T14:14:14;2.30;;;1.60;;
80698;SDS011;70062;51.658;5.658;2024-02-14T14:16:43;2.70;;;1.80;;
80698;SDS011;70062;51.658;5.658;2024-02-14T14:20:09;2.70;;;1.60;;
80698;SDS011;70062;51.658;5.658;2024-02-14T14:22:35;5.30;;;2.00;;
80698;SDS011;70062;51.658;5.658;2024-02-14T14:26:01;2.00;;;1.70;;
80698;SDS011;70062;51.658;5.658;2024-02-14T14:29:27;3.20;;;1.70;;
80698;SDS011;70062;51.658;5.658;2024-02-14T14:32:54;3.30;;;1.80;;
80698;SDS011;70062;51.658;5.658;2024-02-14T14:36:20;4.10;;;1.90;;
80698;SDS011;70062;51.658;5.658;2024-02-14T14:39:46;3.50;;;2.00;;
80698;SDS011;70062;51.658;5.658;2024-02-14T14:43:12;2.70;;;2.00;;
80698;SDS011;70062;51.658;5.658;2024-02-14T14:46:37;2.40;;;1.90;;
80698;SDS011;70062;51.658;5.658;2024-02-14T14:50:04;3.10;;;1.80;;
80698;SDS011;70062;51.658;5.658;2024-02-14T14:53:32;4.00;;;1.90;;
80698;SDS011;70062;51.658;5.658;2024-02-14T15:00:12;4.00;;;1.80;;
80698;SDS011;70062;51.658;5.658;2024-02-14T15:03:01;3.60;;;1.80;;
80698;SDS011;70062;51.658;5.658;2024-02-14T15:05:49;2.70;;;2.00;;
80698;SDS011;70062;51.658;5.658;2024-02-14T15:08:31;3.10;;;1.80;;
80698;SDS011;70062;51.658;5.658;2024-02-14T15:11:39;3.10;;;1.90;;
80698;SDS011;70062;51.658;5.658;2024-02-14T15:14:45;3.00;;;1.70;;
80698;SDS011;70062;51.658;5.658;2024-02-14T15:17:12;4.20;;;1.80;;
80698;SDS011;70062;51.658;5.658;2024-02-14T15:19:39;4.00;;;2.00;;
80698;SDS011;70062;51.658;5.658;2024-02-14T15:22:08;2.50;;;1.80;;
80698;SDS011;70062;51.658;5.658;2024-02-14T15:24:34;3.70;;;2.00;;
80698;SDS011;70062;51.658;5.658;2024-02-14T15:27:03;3.90;;;1.80;;
80698;SDS011;70062;51.658;5.658;2024-02-14T15:29:30;2.70;;;1.90;;
80698;SDS011;70062;51.658;5.658;2024-02-14T15:32:15;2.40;;;1.90;;
80698;SDS011;70062;51.658;5.658;2024-02-14T15:35:00;2.40;;;1.90;;
80698;SDS011;70062;51.658;5.658;2024-02-14T15:37:30;3.10;;;2.10;;
80698;SDS011;70062;51.658;5.658;2024-02-14T15:39:56;3.10;;;1.90;;
80698;SDS011;70062;51.658;5.658;2024-02-14T15:42:34;2.80;;;1.90;;
80698;SDS011;70062;51.658;5.658;2024-02-14T15:44:59;2.80;;;2.00;;
80698;SDS011;70062;51.658;5.658;2024-02-14T15:47:25;4.30;;;2.00;;
80698;SDS011;70062;51.658;5.658;2024-02-14T15:49:50;3.80;;;2.10;;
80698;SDS011;70062;51.658;5.658;2024-02-14T15:52:15;3.00;;;1.90;;
80698;SDS011;70062;51.658;5.658;2024-02-14T15:54:43;4.40;;;2.10;;
80698;SDS011;70062;51.658;5.658;2024-02-14T15:57:09;4.30;;;1.90;;
80698;SDS011;70062;51.658;5.658;2024-02-14T15:59:36;2.70;;;1.70;;
80698;SDS011;70062;51.658;5.658;2024-02-14T16:02:01;3.00;;;2.00;;
80698;SDS011;70062;51.658;5.658;2024-02-14T16:04:29;2.70;;;1.90;;
80698;SDS011;70062;51.658;5.658;2024-02-14T16:06:54;2.90;;;2.20;;
80698;SDS011;70062;51.658;5.658;2024-02-14T16:09:20;3.60;;;2.20;;
80698;SDS011;70062;51.658;5.658;2024-02-14T16:11:46;3.00;;;1.80;;
80698;SDS011;70062;51.658;5.658;2024-02-14T16:14:12;2.90;;;2.00;;
80698;SDS011;70062;51.658;5.658;2024-02-14T16:16:37;5.80;;;2.00;;
80698;SDS011;70062;51.658;5.658;2024-02-14T16:19:02;2.60;;;2.00;;
80698;SDS011;70062;51.658;5.658;2024-02-14T16:21:29;2.60;;;1.90;;
80698;SDS011;70062;51.658;5.658;2024-02-14T16:23:54;2.20;;;2.00;;
80698;SDS011;70062;51.658;5.658;2024-02-14T16:26:20;3.00;;;1.90;;
80698;SDS011;70062;51.658;5.658;2024-02-14T16:28:46;3.10;;;2.10;;
80698;SDS011;70062;51.658;5.658;2024-02-14T16:31:19;2.90;;;2.00;;
80698;SDS011;70062;51.658;5.658;2024-02-14T16:33:47;4.90;;;1.90;;
80698;SDS011;70062;51.658;5.658;2024-02-14T16:36:13;3.90;;;1.80;;
80698;SDS011;70062;51.658;5.658;2024-02-14T16:38:38;5.10;;;1.90;;
80698;SDS011;70062;51.658;5.658;2024-02-14T16:41:04;4.90;;;2.10;;
80698;SDS011;70062;51.658;5.658;2024-02-14T16:43:29;3.20;;;1.90;;
80698;SDS011;70062;51.658;5.658;2024-02-14T16:45:55;3.10;;;1.90;;
80698;SDS011;70062;51.658;5.658;2024-02-14T16:48:20;2.50;;;1.90;;
80698;SDS011;70062;51.658;5.658;2024-02-14T16:50:46;2.90;;;1.80;;
80698;SDS011;70062;51.658;5.658;2024-02-14T16:53:12;2.40;;;1.70;;
80698;SDS011;70062;51.658;5.658;2024-02-14T16:55:37;2.80;;;1.90;;
80698;SDS011;70062;51.658;5.658;2024-02-14T16:58:03;2.80;;;2.00;;
80698;SDS011;70062;51.658;5.658;2024-02-14T17:00:28;3.00;;;1.90;;
80698;SDS011;70062;51.658;5.658;2024-02-14T17:02:54;3.50;;;1.90;;
80698;SDS011;70062;51.658;5.658;2024-02-14T17:05:19;2.80;;;2.00;;
80698;SDS011;70062;51.658;5.658;2024-02-14T17:07:49;6.40;;;2.10;;
80698;SDS011;70062;51.658;5.658;2024-02-14T17:10:16;5.30;;;2.10;;
80698;SDS011;70062;51.658;5.658;2024-02-14T17:12:41;4.60;;;1.90;;
80698;SDS011;70062;51.658;5.658;2024-02-14T17:15:07;3.60;;;2.20;;
80698;SDS011;70062;51.658;5.658;2024-02-14T17:17:35;4.40;;;2.00;;
80698;SDS011;70062;51.658;5.658;2024-02-14T17:20:00;2.90;;;1.80;;
80698;SDS011;70062;51.658;5.658;2024-02-14T17:22:26;2.70;;;1.90;;
80698;SDS011;70062;51.658;5.658;2024-02-14T17:24:51;2.20;;;1.80;;
80698;SDS011;70062;51.658;5.658;2024-02-14T17:27:20;2.70;;;1.90;;
80698;SDS011;70062;51.658;5.658;2024-02-14T17:29:48;3.00;;;2.00;;
80698;SDS011;70062;51.658;5.658;2024-02-14T17:32:13;6.40;;;2.40;;
80698;SDS011;70062;51.658;5.658;2024-02-14T17:34:39;2.70;;;1.90;;
80698;SDS011;70062;51.658;5.658;2024-02-14T17:37:06;3.70;;;1.80;;
80698;SDS011;70062;51.658;5.658;2024-02-14T17:39:31;3.00;;;1.80;;
80698;SDS011;70062;51.658;5.658;2024-02-14T17:41:57;3.00;;;1.90;;
80698;SDS011;70062;51.658;5.658;2024-02-14T17:44:22;4.10;;;1.90;;
80698;SDS011;70062;51.658;5.658;2024-02-14T17:46:47;3.80;;;2.10;;
80698;SDS011;70062;51.658;5.658;2024-02-14T17:49:13;3.40;;;1.90;;
80698;SDS011;70062;51.658;5.658;2024-02-14T17:51:39;3.50;;;2.00;;
80698;SDS011;70062;51.658;5.658;2024-02-14T17:56:33;2.40;;;1.70;;
80698;SDS011;70062;51.658;5.658;2024-02-14T17:58:58;4.10;;;1.90;;
80698;SDS011;70062;51.658;5.658;2024-02-14T18:01:25;3.50;;;2.00;;
80698;SDS011;70062;51.658;5.658;2024-02-14T18:03:50;2.40;;;1.80;;
80698;SDS011;70062;51.658;5.658;2024-02-14T18:06:16;4.10;;;1.80;;
80698;SDS011;70062;51.658;5.658;2024-02-14T18:08:41;3.20;;;2.20;;
80698;SDS011;70062;51.658;5.658;2024-02-14T18:11:09;2.70;;;1.70;;
80698;SDS011;70062;51.658;5.658;2024-02-14T18:13:35;3.80;;;2.00;;
80698;SDS011;70062;51.658;5.658;2024-02-14T18:16:01;2.30;;;1.60;;
80698;SDS011;70062;51.658;5.658;2024-02-14T18:18:27;3.20;;;1.90;;
80698;SDS011;70062;51.658;5.658;2024-02-14T18:20:52;3.70;;;2.10;;
80698;SDS011;70062;51.658;5.658;2024-02-14T18:23:17;4.10;;;1.90;;
80698;SDS011;70062;51.658;5.658;2024-02-14T18:25:44;5.30;;;2.30;;
80698;SDS011;70062;51.658;5.658;2024-02-14T18:28:10;4.10;;;2.00;;
80698;SDS011;70062;51.658;5.658;2024-02-14T18:30:35;2.50;;;1.90;;
80698;SDS011;70062;51.658;5.658;2024-02-14T18:33:01;3.40;;;2.00;;
80698;SDS011;70062;51.658;5.658;2024-02-14T18:35:27;2.80;;;1.80;;
80698;SDS011;70062;51.658;5.658;2024-02-14T18:37:52;3.60;;;1.80;;
80698;SDS011;70062;51.658;5.658;2024-02-14T18:40:18;3.90;;;1.90;;
80698;SDS011;70062;51.658;5.658;2024-02-14T18:42:44;2.70;;;1.80;;
80698;SDS011;70062;51.658;5.658;2024-02-14T18:45:10;3.50;;;2.40;;
80698;SDS011;70062;51.658;5.658;2024-02-14T18:47:36;2.60;;;1.90;;
80698;SDS011;70062;51.658;5.658;2024-02-14T18:50:02;3.30;;;1.90;;
80698;SDS011;70062;51.658;5.658;2024-02-14T18:52:28;2.80;;;2.10;;
80698;SDS011;70062;51.658;5.658;2024-02-14T18:54:54;2.70;;;1.70;;
80698;SDS011;70062;51.658;5.658;2024-02-14T18:57:21;2.60;;;2.00;;
80698;SDS011;70062;51.658;5.658;2024-02-14T18:59:47;1.90;;;1.70;;
80698;SDS011;70062;51.658;5.658;2024-02-14T19:02:14;2.50;;;1.90;;
80698;SDS011;70062;51.658;5.658;2024-02-14T19:04:39;2.30;;;1.80;;
80698;SDS011;70062;51.658;5.658;2024-02-14T19:07:05;3.20;;;2.00;;
80698;SDS011;70062;51.658;5.658;2024-02-14T19:09:36;2.80;;;1.80;;
80698;SDS011;70062;51.658;5.658;2024-02-14T19:12:02;3.60;;;2.00;;
80698;SDS011;70062;51.658;5.658;2024-02-14T19:14:28;2.10;;;1.90;;
80698;SDS011;70062;51.658;5.658;2024-02-14T19:16:53;2.10;;;1.70;;
80698;SDS011;70062;51.658;5.658;2024-02-14T19:19:18;2.00;;;1.70;;
80698;SDS011;70062;51.658;5.658;2024-02-14T19:21:44;2.60;;;1.80;;
80698;SDS011;70062;51.658;5.658;2024-02-14T19:24:11;2.40;;;1.90;;
80698;SDS011;70062;51.658;5.658;2024-02-14T19:26:39;3.50;;;1.90;;
80698;SDS011;70062;51.658;5.658;2024-02-14T19:29:05;3.20;;;1.90;;
80698;SDS011;70062;51.658;5.658;2024-02-14T19:31:30;3.00;;;1.90;;
80698;SDS011;70062;51.658;5.658;2024-02-14T19:33:56;4.00;;;1.80;;
80698;SDS011;70062;51.658;5.658;2024-02-14T19:36:21;2.20;;;1.70;;
80698;SDS011;70062;51.658;5.658;2024-02-14T19:38:49;3.10;;;1.80;;
80698;SDS011;70062;51.658;5.658;2024-02-14T19:41:19;2.70;;;1.80;;
80698;SDS011;70062;51.658;5.658;2024-02-14T19:43:45;2.20;;;1.70;;
80698;SDS011;70062;51.658;5.658;2024-02-14T19:46:10;5.20;;;1.90;;
80698;SDS011;70062;51.658;5.658;2024-02-14T19:48:37;2.20;;;1.80;;
80698;SDS011;70062;51.658;5.658;2024-02-14T19:51:03;4.10;;;2.00;;
80698;SDS011;70062;51.658;5.658;2024-02-14T19:53:29;2.40;;;1.90;;
80698;SDS011;70062;51.658;5.658;2024-02-14T19:55:54;2.40;;;1.80;;
80698;SDS011;70062;51.658;5.658;2024-02-14T19:58:20;2.60;;;2.00;;
80698;SDS011;70062;51.658;5.658;2024-02-14T20:00:46;3.30;;;1.80;;
80698;SDS011;70062;51.658;5.658;2024-02-14T20:03:12;4.10;;;2.10;;
80698;SDS011;70062;51.658;5.658;2024-02-14T20:05:41;3.00;;;1.90;;
80698;SDS011;70062;51.658;5.658;2024-02-14T20:08:13;2.70;;;2.00;;
80698;SDS011;70062;51.658;5.658;2024-02-14T20:10:38;2.60;;;2.00;;
80698;SDS011;70062;51.658;5.658;2024-02-14T20:13:04;2.80;;;2.00;;
80698;SDS011;70062;51.658;5.658;2024-02-14T20:15:29;4.60;;;2.20;;
80698;SDS011;70062;51.658;5.658;2024-02-14T20:17:55;2.80;;;2.00;;
80698;SDS011;70062;51.658;5.658;2024-02-14T20:20:21;4.50;;;2.10;;
80698;SDS011;70062;51.658;5.658;2024-02-14T20:22:47;2.90;;;2.10;;
80698;SDS011;70062;51.658;5.658;2024-02-14T20:25:16;3.80;;;2.30;;
80698;SDS011;70062;51.658;5.658;2024-02-14T20:27:42;5.00;;;2.10;;
80698;SDS011;70062;51.658;5.658;2024-02-14T20:30:09;3.50;;;2.40;;
80698;SDS011;70062;51.658;5.658;2024-02-14T20:32:37;3.80;;;2.10;;
